createdAt,value
2019-04-30T02:34:59.819Z,42.90
2019-04-30T02:37:31.948Z,41.50
2019-04-30T02:40:03.203Z,43.00
2019-04-30T02:42:34.438Z,43.00
2019-04-30T02:45:06.911Z,42.50
2019-04-30T02:47:39.953Z,41.30
2019-04-30T02:50:17.691Z,40.80
2019-04-30T02:52:44.212Z,40.70
2019-04-30T02:55:19.466Z,40.70
2019-04-30T02:57:49.959Z,39.90
2019-04-30T03:00:21.150Z,40.20
2019-04-30T03:02:52.194Z,39.30
2019-04-30T03:05:23.522Z,38.40
2019-04-30T03:07:54.535Z,37.30
2019-04-30T03:10:25.405Z,37.30
2019-04-30T03:12:56.785Z,37.90
2019-04-30T03:15:29.909Z,37.80
2019-04-30T03:18:01.512Z,37.80
2019-04-30T03:20:36.406Z,38.10
2019-04-30T03:23:06.031Z,37.80
2019-04-30T03:25:37.127Z,37.40
2019-04-30T03:28:19.944Z,37.00
2019-04-30T03:30:52.015Z,38.50
2019-04-30T03:33:23.213Z,37.10
2019-04-30T03:35:55.300Z,36.90
2019-04-30T03:38:30.130Z,36.70
2019-04-30T03:41:01.029Z,37.50
2019-04-30T03:43:32.003Z,36.30
2019-04-30T03:46:03.023Z,36.10
2019-04-30T03:48:33.862Z,36.30
2019-04-30T03:51:04.927Z,36.30
2019-04-30T03:53:36.055Z,36.30
2019-04-30T03:56:09.361Z,36.50
2019-04-30T03:58:39.928Z,35.40
2019-04-30T04:01:10.547Z,35.70
2019-04-30T04:03:42.860Z,36.70
2019-04-30T04:06:15.439Z,34.70
2019-04-30T04:08:49.026Z,35.90
2019-04-30T04:11:21.554Z,36.70
2019-04-30T04:13:52.202Z,35.40
2019-04-30T04:16:23.355Z,35.80
2019-04-30T04:18:54.748Z,36.40
2019-04-30T04:21:25.537Z,35.60
2019-04-30T04:23:56.295Z,35.60
2019-04-30T04:26:29.679Z,35.00
2019-04-30T04:28:59.965Z,34.60
2019-04-30T04:31:30.983Z,35.60
2019-04-30T04:34:02.251Z,35.40
2019-04-30T04:36:33.038Z,36.30
2019-04-30T04:39:04.052Z,35.30
2019-04-30T04:41:35.230Z,35.10
2019-04-30T04:44:05.876Z,35.20
2019-04-30T04:46:36.609Z,35.10
2019-04-30T04:49:09.034Z,34.10
2019-04-30T04:51:42.316Z,33.30
2019-04-30T04:54:12.234Z,34.20
2019-04-30T04:56:43.507Z,34.60
2019-04-30T04:59:14.551Z,34.80
2019-04-30T05:01:45.539Z,33.10
2019-04-30T05:04:19.703Z,33.70
2019-04-30T05:06:49.838Z,33.80
2019-04-30T05:09:20.461Z,33.70
2019-04-30T05:11:51.573Z,33.80
2019-04-30T05:14:22.440Z,33.50
2019-04-30T05:16:53.145Z,32.30
2019-04-30T05:19:25.216Z,32.40
2019-04-30T05:21:56.072Z,32.40
2019-04-30T05:24:28.568Z,32.10
2019-04-30T05:26:59.483Z,32.00
2019-04-30T05:29:30.184Z,32.40
2019-04-30T05:32:01.002Z,31.30
2019-04-30T05:34:32.081Z,31.60
2019-04-30T05:37:03.076Z,31.60
2019-04-30T05:39:34.061Z,31.50
2019-04-30T05:42:04.855Z,33.00
2019-04-30T05:44:36.357Z,32.00
2019-04-30T05:47:08.896Z,32.40
2019-04-30T05:49:39.547Z,31.20
2019-04-30T05:52:11.624Z,30.90
2019-04-30T05:54:43.553Z,30.50
2019-04-30T05:57:14.509Z,31.60
2019-04-30T05:59:45.835Z,32.10
2019-04-30T06:02:19.436Z,32.50
2019-04-30T06:04:48.920Z,32.60
2019-04-30T06:07:20.239Z,33.10
2019-04-30T06:09:51.483Z,31.90
2019-04-30T06:12:22.119Z,32.00
2019-04-30T06:14:54.435Z,32.70
2019-04-30T06:17:26.648Z,32.60
2019-04-30T06:19:59.089Z,33.20
2019-04-30T06:22:30.736Z,33.60
2019-04-30T06:25:01.643Z,32.90
2019-04-30T06:27:32.440Z,32.50
2019-04-30T06:30:03.621Z,32.90
2019-04-30T06:32:34.454Z,31.30
2019-04-30T06:35:06.265Z,31.40
2019-04-30T06:37:39.081Z,30.30
2019-04-30T06:40:11.795Z,30.60
2019-04-30T06:42:42.576Z,30.70
2019-04-30T06:45:13.996Z,30.70
2019-04-30T06:47:44.991Z,31.30
2019-04-30T06:50:16.099Z,31.40
2019-04-30T06:52:56.234Z,31.10
2019-04-30T06:55:19.549Z,31.00
2019-04-30T06:57:50.407Z,31.40
2019-04-30T07:00:32.858Z,30.60
2019-04-30T07:02:54.897Z,30.00
2019-04-30T07:05:25.819Z,30.40
2019-04-30T07:08:02.590Z,29.80
2019-04-30T07:10:31.291Z,30.00
2019-04-30T07:13:03.618Z,29.80
2019-04-30T07:15:34.566Z,29.60
2019-04-30T07:18:05.738Z,29.80
2019-04-30T07:20:38.686Z,30.40
2019-04-30T07:23:09.354Z,30.30
2019-04-30T07:25:40.442Z,29.90
2019-04-30T07:28:11.318Z,29.40
2019-04-30T07:30:42.305Z,29.30
2019-04-30T07:33:13.313Z,30.20
2019-04-30T07:35:44.248Z,29.40
2019-04-30T07:38:16.822Z,29.70
2019-04-30T07:40:49.184Z,29.20
2019-04-30T07:43:19.816Z,29.30
2019-04-30T07:45:51.275Z,29.20
2019-04-30T07:48:26.234Z,28.70
2019-04-30T07:50:54.402Z,28.30
2019-04-30T07:53:25.518Z,28.70
2019-04-30T07:55:56.465Z,28.40
2019-04-30T07:58:29.787Z,28.30
2019-04-30T08:00:59.753Z,28.20
2019-04-30T08:03:32.153Z,28.50
2019-04-30T08:06:03.781Z,28.60
2019-04-30T08:08:34.749Z,28.30
2019-04-30T08:11:05.742Z,28.90
2019-04-30T08:13:39.837Z,29.20
2019-04-30T08:16:09.748Z,28.40
2019-04-30T08:18:40.663Z,28.00
2019-04-30T08:21:11.675Z,28.30
2019-04-30T08:23:42.707Z,28.30
2019-04-30T08:26:13.808Z,28.70
2019-04-30T08:28:44.562Z,28.80
2019-04-30T08:31:15.700Z,28.30
2019-04-30T08:33:48.914Z,28.70
2019-04-30T08:36:19.663Z,28.30
2019-04-30T08:38:51.516Z,28.40
2019-04-30T08:41:22.612Z,28.70
2019-04-30T08:43:53.440Z,28.70
2019-04-30T08:46:24.671Z,28.80
2019-04-30T08:48:55.554Z,28.30
2019-04-30T08:51:28.460Z,27.70
2019-04-30T08:53:59.000Z,27.90
2019-04-30T08:56:30.369Z,28.10
2019-04-30T08:59:01.620Z,27.90
2019-04-30T09:01:32.845Z,27.90
2019-04-30T09:04:03.887Z,26.60
2019-04-30T09:06:34.789Z,26.20
2019-04-30T09:09:10.723Z,26.90
2019-04-30T09:11:52.396Z,26.70
2019-04-30T09:14:13.176Z,27.30
2019-04-30T09:16:44.097Z,27.10
2019-04-30T09:19:16.050Z,27.20
2019-04-30T09:21:48.760Z,27.70
2019-04-30T09:24:19.392Z,28.10
2019-04-30T09:26:50.067Z,28.40
2019-04-30T09:29:21.296Z,28.30
2019-04-30T09:31:52.068Z,29.20
2019-04-30T09:34:22.973Z,29.10
2019-04-30T09:36:54.108Z,28.80
2019-04-30T09:39:25.075Z,29.10
2019-04-30T09:41:56.137Z,29.20
2019-04-30T09:44:30.485Z,28.70
2019-04-30T09:46:59.843Z,28.10
2019-04-30T09:49:30.939Z,28.60
2019-04-30T09:52:02.049Z,28.60
2019-04-30T09:54:33.286Z,28.70
2019-04-30T09:57:04.149Z,29.10
2019-04-30T09:59:35.183Z,29.60
2019-04-30T10:02:06.144Z,29.50
2019-04-30T10:04:38.963Z,28.90
2019-04-30T10:07:09.687Z,29.10
2019-04-30T10:09:40.652Z,29.80
2019-04-30T10:12:13.131Z,30.40
2019-04-30T10:14:44.293Z,30.50
2019-04-30T10:17:16.480Z,30.90
2019-04-30T10:19:49.048Z,30.20
2019-04-30T10:22:19.410Z,30.20
2019-04-30T10:24:50.690Z,30.20
2019-04-30T10:27:21.881Z,30.30
2019-04-30T10:29:53.584Z,30.50
2019-04-30T10:32:24.588Z,31.00
2019-04-30T10:34:55.478Z,31.20
2019-04-30T10:37:28.615Z,31.50
2019-04-30T10:39:59.748Z,31.80
2019-04-30T10:42:31.036Z,31.80
2019-04-30T10:45:01.947Z,32.10
2019-04-30T10:47:32.786Z,32.30
2019-04-30T10:50:04.038Z,32.40
2019-04-30T10:52:34.962Z,32.70
2019-04-30T10:55:07.223Z,33.10
2019-04-30T10:57:39.680Z,33.10
2019-04-30T11:00:12.861Z,33.30
2019-04-30T11:02:44.059Z,33.50
2019-04-30T11:05:15.452Z,33.50
2019-04-30T11:07:46.471Z,33.60
2019-04-30T11:10:18.931Z,33.80
2019-04-30T11:12:49.850Z,34.10
2019-04-30T11:15:20.828Z,34.30
2019-04-30T11:17:52.061Z,34.50
2019-04-30T11:20:23.200Z,34.40
2019-04-30T11:22:54.878Z,34.70
2019-04-30T11:25:26.903Z,34.90
2019-04-30T11:27:58.571Z,35.10
2019-04-30T11:30:30.112Z,35.20
2019-04-30T11:33:01.546Z,35.70
2019-04-30T11:35:32.695Z,35.70
2019-04-30T11:38:03.770Z,35.80
2019-04-30T11:40:37.310Z,36.10
2019-04-30T11:43:07.074Z,36.10
2019-04-30T11:45:40.398Z,36.20
2019-04-30T11:48:11.704Z,36.30
2019-04-30T11:50:42.640Z,36.40
2019-04-30T11:53:24.592Z,36.40
2019-04-30T11:55:45.862Z,36.60
2019-04-30T11:58:21.637Z,36.60
2019-04-30T12:00:49.552Z,37.10
2019-04-30T12:03:23.093Z,39.00
2019-04-30T12:05:54.282Z,39.70
2019-04-30T12:08:26.610Z,39.10
2019-04-30T12:10:59.132Z,38.70
2019-04-30T12:13:31.296Z,39.10
2019-04-30T12:16:02.343Z,39.40
2019-04-30T12:18:34.233Z,40.10
2019-04-30T12:21:05.508Z,40.30
2019-04-30T12:23:36.291Z,40.60
2019-04-30T12:26:09.144Z,42.90
2019-04-30T12:28:39.831Z,42.10
2019-04-30T12:31:10.766Z,41.80
2019-04-30T12:33:42.990Z,41.90
2019-04-30T12:36:13.837Z,42.60
2019-04-30T12:38:44.798Z,42.20
2019-04-30T12:41:16.051Z,42.10
2019-04-30T12:43:46.872Z,42.40
2019-04-30T12:46:21.300Z,42.70
2019-04-30T12:48:52.782Z,43.20
2019-04-30T12:51:24.917Z,43.10
2019-04-30T12:53:57.144Z,43.80
2019-04-30T12:56:28.161Z,44.00
2019-04-30T12:58:59.095Z,44.90
2019-04-30T13:01:32.179Z,46.90
2019-04-30T13:04:02.606Z,46.50
2019-04-30T13:06:33.786Z,46.70
2019-04-30T13:09:08.079Z,46.90
2019-04-30T13:11:40.980Z,46.30
2019-04-30T13:14:12.517Z,47.40
2019-04-30T13:16:44.271Z,47.00
2019-04-30T13:19:15.359Z,47.90
2019-04-30T13:21:46.283Z,47.70
2019-04-30T13:24:17.582Z,47.60
2019-04-30T13:26:49.499Z,48.20
2019-04-30T13:29:21.610Z,48.20
2019-04-30T13:31:54.507Z,48.20
2019-04-30T13:34:26.749Z,48.50
2019-04-30T13:36:59.367Z,48.90
2019-04-30T13:39:31.628Z,49.10
2019-04-30T13:42:14.565Z,48.50
2019-04-30T13:44:36.057Z,48.30
2019-04-30T13:47:06.919Z,47.80
2019-04-30T13:49:39.447Z,47.80
2019-04-30T13:52:10.063Z,47.50
2019-04-30T13:54:40.946Z,47.40
2019-04-30T13:57:12.072Z,47.30
2019-04-30T13:59:43.061Z,47.40
2019-04-30T14:02:13.975Z,47.40
2019-04-30T14:04:46.719Z,47.60
2019-04-30T14:07:19.002Z,47.70
2019-04-30T14:09:52.341Z,47.90
2019-04-30T14:12:22.364Z,48.50
2019-04-30T14:14:53.206Z,48.10
2019-04-30T14:17:24.324Z,48.40
2019-04-30T14:19:55.534Z,48.50
2019-04-30T14:22:29.075Z,48.30
2019-04-30T14:25:00.138Z,48.50
2019-04-30T14:27:32.139Z,48.60
2019-04-30T14:30:03.105Z,48.50
2019-04-30T14:32:34.032Z,48.50
2019-04-30T14:35:05.743Z,48.70
2019-04-30T14:37:38.734Z,49.10
2019-04-30T14:40:12.470Z,48.90
2019-04-30T14:42:43.901Z,49.00
2019-04-30T14:45:16.709Z,49.10
2019-04-30T14:47:50.903Z,48.90
2019-04-30T14:50:23.646Z,49.10
2019-04-30T14:52:56.080Z,49.30
2019-04-30T14:55:29.472Z,49.30
2019-04-30T14:58:01.777Z,49.30
2019-04-30T15:00:34.035Z,49.40
2019-04-30T15:03:06.274Z,49.60
2019-04-30T15:05:40.599Z,49.70
2019-04-30T15:08:09.707Z,49.70
2019-04-30T15:10:41.050Z,49.70
2019-04-30T15:13:12.180Z,49.70
2019-04-30T15:15:43.304Z,49.70
2019-04-30T15:18:14.354Z,49.80
2019-04-30T15:20:45.386Z,49.70
2019-04-30T15:23:19.164Z,49.70
2019-04-30T15:25:50.121Z,49.70
2019-04-30T15:28:21.149Z,49.90
2019-04-30T15:30:52.206Z,50.00
2019-04-30T15:33:23.107Z,50.00
2019-04-30T15:35:53.999Z,50.00
2019-04-30T15:38:26.093Z,50.00
2019-04-30T15:40:57.112Z,50.00
2019-04-30T15:43:28.076Z,50.10
2019-04-30T15:45:58.867Z,50.30
2019-04-30T15:48:30.083Z,50.40
2019-04-30T15:51:00.849Z,50.50
2019-04-30T15:53:31.742Z,50.60
2019-04-30T15:56:02.612Z,50.80
2019-04-30T15:58:34.823Z,50.70
2019-04-30T16:01:08.990Z,50.70
2019-04-30T16:03:40.908Z,50.70
2019-04-30T16:06:11.880Z,51.00
2019-04-30T16:08:44.176Z,50.90
2019-04-30T16:11:16.321Z,50.90
2019-04-30T16:13:49.508Z,51.00
2019-04-30T16:16:20.427Z,50.80
2019-04-30T16:18:52.190Z,51.10
2019-04-30T16:21:23.122Z,50.80
2019-04-30T16:23:53.921Z,50.90
2019-04-30T16:26:24.974Z,50.80
2019-04-30T16:28:55.890Z,51.10
2019-04-30T16:31:26.733Z,51.50
2019-04-30T16:33:57.841Z,51.40
2019-04-30T16:36:29.509Z,51.10
2019-04-30T16:39:00.305Z,51.00
2019-04-30T16:41:31.979Z,51.10
2019-04-30T16:44:02.897Z,50.90
2019-04-30T16:46:33.756Z,50.80
2019-04-30T16:49:04.674Z,51.30
2019-04-30T16:51:35.420Z,50.80
2019-04-30T16:54:06.311Z,51.70
2019-04-30T16:56:38.638Z,51.10
2019-04-30T16:59:10.848Z,51.90
2019-04-30T17:01:42.064Z,52.20
2019-04-30T17:04:14.143Z,52.20
2019-04-30T17:06:46.551Z,52.10
2019-04-30T17:09:17.186Z,51.80
2019-04-30T17:11:49.409Z,52.60
2019-04-30T17:14:20.341Z,52.10
2019-04-30T17:16:51.070Z,52.00
2019-04-30T17:19:22.742Z,52.60
2019-04-30T17:21:53.619Z,52.30
2019-04-30T17:24:24.462Z,52.70
2019-04-30T17:26:55.411Z,53.10
2019-04-30T17:29:26.502Z,53.30
2019-04-30T17:31:57.454Z,53.70
2019-04-30T17:34:28.829Z,53.10
2019-04-30T17:37:00.758Z,53.80
2019-04-30T17:39:31.693Z,53.40
2019-04-30T17:42:02.623Z,53.00
2019-04-30T17:44:33.735Z,53.20
2019-04-30T17:47:04.864Z,53.20
2019-04-30T17:49:35.674Z,53.10
2019-04-30T17:52:08.710Z,53.70
2019-04-30T17:54:39.114Z,53.30
2019-04-30T17:57:10.682Z,53.30
2019-04-30T17:59:41.510Z,53.80
2019-04-30T18:02:13.909Z,53.60
2019-04-30T18:04:44.783Z,53.70
2019-04-30T18:07:15.971Z,53.70
2019-04-30T18:09:48.730Z,54.50
2019-04-30T18:12:19.552Z,55.40
2019-04-30T18:14:50.460Z,54.90
2019-04-30T18:17:22.530Z,55.40
2019-04-30T18:19:52.981Z,55.20
2019-04-30T18:22:23.797Z,56.00
2019-04-30T18:24:56.064Z,56.50
2019-04-30T18:27:29.453Z,55.80
2019-04-30T18:30:00.518Z,56.50
2019-04-30T18:32:31.332Z,56.50
2019-04-30T18:35:02.424Z,56.40
2019-04-30T18:37:33.296Z,56.60
2019-04-30T18:40:04.104Z,56.60
2019-04-30T18:42:35.538Z,57.10
2019-04-30T18:45:09.142Z,56.70
2019-04-30T18:47:38.877Z,57.20
2019-04-30T18:50:09.942Z,57.50
2019-04-30T18:52:41.256Z,57.50
2019-04-30T18:55:12.488Z,57.00
2019-04-30T18:57:55.791Z,56.60
2019-04-30T19:00:19.666Z,57.20
2019-04-30T19:02:50.866Z,56.60
2019-04-30T19:05:23.091Z,56.60
2019-04-30T19:07:55.233Z,56.60
2019-04-30T19:10:27.294Z,56.60
2019-04-30T19:12:59.763Z,57.40
2019-04-30T19:15:58.945Z,57.80
2019-04-30T19:18:05.427Z,57.50
2019-04-30T19:20:38.565Z,57.70
2019-04-30T19:23:10.162Z,57.70
2019-04-30T19:25:41.182Z,58.20
2019-04-30T19:28:14.446Z,58.40
2019-04-30T19:30:55.026Z,58.20
2019-04-30T19:33:19.432Z,59.00
2019-04-30T19:35:50.724Z,58.70
2019-04-30T19:38:21.642Z,58.90
2019-04-30T19:40:52.626Z,58.90
2019-04-30T19:43:23.470Z,59.00
2019-04-30T19:45:54.278Z,58.80
2019-04-30T19:48:25.075Z,58.90
2019-04-30T19:50:55.872Z,58.80
2019-04-30T19:53:26.751Z,58.70
2019-04-30T19:55:57.642Z,59.00
2019-04-30T19:58:44.553Z,59.00
2019-04-30T20:01:01.069Z,58.90
2019-04-30T20:03:32.149Z,59.30
2019-04-30T20:06:03.063Z,59.10
2019-04-30T20:08:33.964Z,59.20
2019-04-30T20:11:04.763Z,59.40
2019-04-30T20:13:37.253Z,59.00
2019-04-30T20:16:09.625Z,59.00
2019-04-30T20:18:41.932Z,59.40
2019-04-30T20:21:14.130Z,59.40
2019-04-30T20:23:45.023Z,59.70
2019-04-30T20:26:15.863Z,59.50
2019-04-30T20:28:46.544Z,59.50
2019-04-30T20:31:19.061Z,59.70
2019-04-30T20:33:49.890Z,59.90
2019-04-30T20:36:20.829Z,60.00
2019-04-30T20:38:53.151Z,60.80
2019-04-30T20:41:25.277Z,60.00
2019-04-30T20:43:56.506Z,60.10
2019-04-30T20:46:34.301Z,60.40
2019-04-30T20:48:59.816Z,60.70
2019-04-30T20:51:30.411Z,60.30
2019-04-30T20:54:01.503Z,60.30
2019-04-30T20:56:32.408Z,60.70
2019-04-30T20:59:06.437Z,60.70
2019-04-30T21:01:35.377Z,60.30
2019-04-30T21:04:06.493Z,60.30
2019-04-30T21:06:37.153Z,60.10
2019-04-30T21:09:08.206Z,59.80
2019-04-30T21:11:40.401Z,60.20
2019-04-30T21:14:11.137Z,60.00
2019-04-30T21:16:42.292Z,60.00
2019-04-30T21:19:13.838Z,60.00
2019-04-30T21:21:44.743Z,60.20
2019-04-30T21:24:15.816Z,60.40
2019-04-30T21:26:46.683Z,60.70
2019-04-30T21:29:18.859Z,60.70
2019-04-30T21:31:51.248Z,60.30
2019-04-30T21:34:23.333Z,60.50
2019-04-30T21:36:54.124Z,60.10
2019-04-30T21:39:24.973Z,60.50
2019-04-30T21:41:55.890Z,61.70
2019-04-30T21:44:26.792Z,61.40
2019-04-30T21:46:57.821Z,61.40
2019-04-30T21:49:28.951Z,61.90
2019-04-30T21:51:59.790Z,61.60
2019-04-30T21:54:30.738Z,61.50
2019-04-30T21:57:01.703Z,62.00
2019-04-30T21:59:32.570Z,61.80
2019-04-30T22:02:03.364Z,61.80
2019-04-30T22:04:34.325Z,62.10
2019-04-30T22:07:05.155Z,62.00
2019-04-30T22:09:36.086Z,62.10
2019-04-30T22:12:09.075Z,61.80
2019-04-30T22:14:39.775Z,62.50
2019-04-30T22:17:10.616Z,62.50
2019-04-30T22:19:42.781Z,62.70
2019-04-30T22:22:13.867Z,62.70
2019-04-30T22:24:44.769Z,63.50
2019-04-30T22:27:17.441Z,63.00
2019-04-30T22:29:47.888Z,63.00
2019-04-30T22:32:18.794Z,64.20
2019-04-30T22:34:49.886Z,63.70
2019-04-30T22:37:20.652Z,62.70
2019-04-30T22:39:52.791Z,63.70
2019-04-30T22:42:25.974Z,63.60
2019-04-30T22:44:57.038Z,64.10
2019-04-30T22:47:27.995Z,63.80
2019-04-30T22:49:58.988Z,64.70
2019-04-30T22:52:29.934Z,64.00
2019-04-30T22:55:00.771Z,64.80
2019-04-30T22:57:31.603Z,64.80
2019-04-30T23:00:02.520Z,64.30
2019-04-30T23:02:34.725Z,65.30
2019-04-30T23:05:07.010Z,65.00
2019-04-30T23:07:37.923Z,65.20
2019-04-30T23:10:09.003Z,65.00
2019-04-30T23:12:40.412Z,64.60
2019-04-30T23:15:11.234Z,64.70
2019-04-30T23:17:41.963Z,64.80
2019-04-30T23:20:13.534Z,65.30
2019-04-30T23:22:44.387Z,65.30
2019-04-30T23:25:15.383Z,65.10
2019-04-30T23:27:46.486Z,65.70
2019-04-30T23:30:17.367Z,65.40
2019-04-30T23:32:48.158Z,65.10
2019-04-30T23:35:19.223Z,65.50
2019-04-30T23:37:50.167Z,65.40
2019-04-30T23:40:23.327Z,64.70
2019-04-30T23:42:55.756Z,65.50
2019-04-30T23:45:26.807Z,65.10
2019-04-30T23:47:57.853Z,65.50
2019-04-30T23:50:28.943Z,65.20
2019-04-30T23:52:59.849Z,65.40
2019-04-30T23:55:30.635Z,65.60
2019-04-30T23:58:01.496Z,65.40
